Date,TemperatureHighF,TemperatureAvgF,TemperatureLowF,DewpointHighF,DewpointAvgF,DewpointLowF,HumidityHigh,HumidityAvg,HumidityLow,PressureMaxIn,PressureMinIn,WindSpeedMaxMPH,WindSpeedAvgMPH,GustSpeedMaxMPH,PrecipitationSumIn
2012-12-1,58.6,49.1,38.1,25.5,20.9,17.6,51,33,22,25.13,25.04,10,3,20,0.00
2012-12-2,56.1,45.6,33.3,25.2,20.7,17.4,61,39,25,25.13,24.92,14,3,19,0.00
2012-12-3,55.0,46.1,33.1,40.5,21.7,-1.3,86,41,13,25.31,24.92,13,4,21,0.00
2012-12-4,50.2,37.9,25.9,16.5,12.4,8.4,55,36,19,25.42,25.28,7,2,12,0.00
2012-12-5,49.1,39.7,28.9,19.0,13.1,7.3,53,35,19,25.31,25.07,6,2,11,0.00
2012-12-6,51.3,42.6,36.3,35.6,24.5,17.2,78,50,37,25.10,24.95,7,2,11,0.00
2012-12-7,52.5,41.4,31.6,32.5,23.8,8.1,87,55,18,25.01,24.92,16,4,24,0.04
2012-12-8,52.9,38.1,26.2,25.2,3.3,-99.9,82,39,11,24.98,24.80,17,5,33,0.00
2012-12-9,32.2,24.2,12.9,25.5,-0.1,-99.9,95,44,13,25.25,24.98,13,3,20,0.00
2012-12-10,27.5,19.1,11.3,3.6,-20.6,-99.9,56,32,27,25.25,25.07,7,3,11,0.00
2012-12-11,36.1,24.3,12.0,14.4,1.4,-99.9,80,49,37,25.16,25.01,5,1,8,0.00
2012-12-12,41.2,31.0,17.6,15.1,11.4,5.7,64,45,26,25.04,24.95,7,2,11,0.00
2012-12-13,54.5,38.6,27.9,16.3,10.3,-99.9,52,34,11,25.01,24.86,9,2,12,0.00
2012-12-14,43.9,37.8,31.8,33.8,19.4,8.8,93,52,28,24.86,24.63,11,3,15,0.00
2012-12-15,38.3,34.7,32.5,34.3,31.8,29.3,96,89,71,24.89,24.83,6,2,9,0.00
2012-12-16,39.9,33.2,27.9,32.5,22.1,8.4,96,69,30,25.01,24.86,15,4,27,0.00
2012-12-17,40.8,33.4,28.4,26.1,21.8,17.8,80,63,43,25.01,24.86,7,2,11,0.00
2012-12-18,44.1,35.7,28.8,32.0,24.2,19.8,97,65,38,24.86,24.60,14,4,27,0.00
2012-12-19,28.8,23.3,9.5,23.4,-4.2,-99.9,95,44,16,25.37,24.63,14,8,22,0.04
2012-12-20,22.3,12.0,5.0,-0.8,-71.0,-99.9,48,11,22,25.51,25.37,8,3,15,0.00
2012-12-21,21.2,9.9,0.3,5.4,-68.6,-99.9,60,16,45,25.45,25.28,6,2,10,0.00
2012-12-22,17.1,8.4,0.1,5.2,-78.4,-99.9,61,12,55,25.28,25.16,9,1,12,0.00
2012-12-23,25.7,15.9,6.6,11.1,-34.3,-99.9,77,35,44,25.22,25.01,6,1,8,0.00
2012-12-24,28.4,23.9,17.4,26.2,20.3,10.9,100,86,66,25.01,24.75,8,2,13,0.00
2012-12-25,30.7,20.6,9.7,26.1,1.8,-99.9,100,72,52,25.16,24.92,7,2,12,19.36
2012-12-26,25.0,19.9,12.9,22.6,4.3,-99.9,96,74,63,25.07,24.75,8,2,12,16.34
2012-12-27,33.1,23.1,18.0,26.4,20.6,16.7,100,91,67,24.98,24.77,7,1,10,0.12
2012-12-28,21.4,14.5,7.2,18.7,-36.3,-99.9,97,48,66,25.28,24.98,6,1,8,0.00
2012-12-29,21.7,12.1,3.7,4.6,-69.5,-99.9,59,14,38,25.28,25.13,8,3,13,0.00
2012-12-30,21.4,13.9,1.9,12.4,-34.8,-99.9,86,37,46,25.13,24.92,6,2,10,0.00
2012-12-31,23.9,16.2,8.4,15.3,-4.3,-99.9,92,70,58,25.13,24.92,6,2,7,0.00